sensor_id;sensor_type;location;lat;lon;timestamp;temperature;humidity
16893;DHT22;8563;52.242;9.098;2023-04-01T00:02:23;10.30;99.90
16893;DHT22;8563;52.242;9.098;2023-04-01T00:04:55;10.30;99.90
16893;DHT22;8563;52.242;9.098;2023-04-01T00:07:29;10.30;99.90
16893;DHT22;8563;52.242;9.098;2023-04-01T00:10:01;10.30;99.90
16893;DHT22;8563;52.242;9.098;2023-04-01T00:12:34;10.30;99.90
16893;DHT22;8563;52.242;9.098;2023-04-01T00:15:08;10.30;99.90
16893;DHT22;8563;52.242;9.098;2023-04-01T00:17:41;10.30;99.90
16893;DHT22;8563;52.242;9.098;2023-04-01T00:20:13;10.30;99.90
16893;DHT22;8563;52.242;9.098;2023-04-01T00:22:47;10.30;99.90
16893;DHT22;8563;52.242;9.098;2023-04-01T00:25:19;10.30;99.90
16893;DHT22;8563;52.242;9.098;2023-04-01T00:27:52;10.30;99.90
16893;DHT22;8563;52.242;9.098;2023-04-01T00:30:24;10.30;99.90
16893;DHT22;8563;52.242;9.098;2023-04-01T00:32:56;10.30;99.90
16893;DHT22;8563;52.242;9.098;2023-04-01T00:35:28;10.30;99.90
16893;DHT22;8563;52.242;9.098;2023-04-01T00:38:01;10.30;99.90
16893;DHT22;8563;52.242;9.098;2023-04-01T00:40:36;10.30;99.90
16893;DHT22;8563;52.242;9.098;2023-04-01T00:43:11;10.30;99.90
16893;DHT22;8563;52.242;9.098;2023-04-01T00:45:45;10.30;99.90
16893;DHT22;8563;52.242;9.098;2023-04-01T00:48:23;10.30;99.90
16893;DHT22;8563;52.242;9.098;2023-04-01T00:50:59;10.30;99.90
16893;DHT22;8563;52.242;9.098;2023-04-01T00:53:37;10.30;99.90
16893;DHT22;8563;52.242;9.098;2023-04-01T00:56:12;10.30;99.90
16893;DHT22;8563;52.242;9.098;2023-04-01T00:58:48;10.30;99.90
16893;DHT22;8563;52.242;9.098;2023-04-01T01:01:22;10.20;99.90
16893;DHT22;8563;52.242;9.098;2023-04-01T01:03:56;10.20;99.90
16893;DHT22;8563;52.242;9.098;2023-04-01T01:06:37;10.20;99.90
16893;DHT22;8563;52.242;9.098;2023-04-01T01:09:23;10.20;99.90
16893;DHT22;8563;52.242;9.098;2023-04-01T01:12:03;10.20;99.90
16893;DHT22;8563;52.242;9.098;2023-04-01T01:14:48;10.20;99.90
16893;DHT22;8563;52.242;9.098;2023-04-01T01:17:32;10.20;99.90
16893;DHT22;8563;52.242;9.098;2023-04-01T01:20:24;10.20;99.90
16893;DHT22;8563;52.242;9.098;2023-04-01T01:23:31;10.30;99.90
16893;DHT22;8563;52.242;9.098;2023-04-01T01:29:12;10.20;99.90
16893;DHT22;8563;52.242;9.098;2023-04-01T01:31:56;10.20;99.90
16893;DHT22;8563;52.242;9.098;2023-04-01T01:34:35;10.20;99.90
16893;DHT22;8563;52.242;9.098;2023-04-01T01:37:14;10.20;99.90
16893;DHT22;8563;52.242;9.098;2023-04-01T01:39:53;10.20;99.90
16893;DHT22;8563;52.242;9.098;2023-04-01T01:42:28;10.20;99.90
16893;DHT22;8563;52.242;9.098;2023-04-01T01:45:04;10.20;99.90
16893;DHT22;8563;52.242;9.098;2023-04-01T01:47:37;10.20;99.90
16893;DHT22;8563;52.242;9.098;2023-04-01T01:50:12;10.20;99.90
16893;DHT22;8563;52.242;9.098;2023-04-01T01:52:46;10.20;99.90
16893;DHT22;8563;52.242;9.098;2023-04-01T01:55:26;10.20;99.90
16893;DHT22;8563;52.242;9.098;2023-04-01T01:58:04;10.20;99.90
16893;DHT22;8563;52.242;9.098;2023-04-01T02:00:39;10.20;99.90
16893;DHT22;8563;52.242;9.098;2023-04-01T02:03:15;10.10;99.90
16893;DHT22;8563;52.242;9.098;2023-04-01T02:05:50;10.10;99.90
16893;DHT22;8563;52.242;9.098;2023-04-01T02:08:27;10.10;99.90
16893;DHT22;8563;52.242;9.098;2023-04-01T02:11:04;10.10;99.90
16893;DHT22;8563;52.242;9.098;2023-04-01T02:13:45;10.10;99.90
16893;DHT22;8563;52.242;9.098;2023-04-01T02:16:23;10.10;99.90
16893;DHT22;8563;52.242;9.098;2023-04-01T02:18:59;10.10;99.90
16893;DHT22;8563;52.242;9.098;2023-04-01T02:21:33;10.10;99.90
16893;DHT22;8563;52.242;9.098;2023-04-01T02:24:12;10.10;99.90
16893;DHT22;8563;52.242;9.098;2023-04-01T02:26:45;10.10;99.90
16893;DHT22;8563;52.242;9.098;2023-04-01T02:29:20;10.10;99.90
16893;DHT22;8563;52.242;9.098;2023-04-01T02:31:56;10.10;99.90
16893;DHT22;8563;52.242;9.098;2023-04-01T02:34:28;10.10;99.90
16893;DHT22;8563;52.242;9.098;2023-04-01T02:37:01;10.10;99.90
16893;DHT22;8563;52.242;9.098;2023-04-01T02:39:35;10.10;99.90
16893;DHT22;8563;52.242;9.098;2023-04-01T02:42:07;10.10;99.90
16893;DHT22;8563;52.242;9.098;2023-04-01T02:44:39;10.10;99.90
16893;DHT22;8563;52.242;9.098;2023-04-01T02:47:11;10.10;99.90
16893;DHT22;8563;52.242;9.098;2023-04-01T02:49:43;10.00;99.90
16893;DHT22;8563;52.242;9.098;2023-04-01T02:52:15;10.00;99.90
16893;DHT22;8563;52.242;9.098;2023-04-01T02:54:49;10.00;99.90
16893;DHT22;8563;52.242;9.098;2023-04-01T02:57:21;10.00;99.90
16893;DHT22;8563;52.242;9.098;2023-04-01T02:59:53;9.90;99.90
16893;DHT22;8563;52.242;9.098;2023-04-01T03:02:26;9.90;99.90
16893;DHT22;8563;52.242;9.098;2023-04-01T03:04:58;9.90;99.90
16893;DHT22;8563;52.242;9.098;2023-04-01T03:07:30;9.90;99.90
16893;DHT22;8563;52.242;9.098;2023-04-01T03:10:05;9.90;99.90
16893;DHT22;8563;52.242;9.098;2023-04-01T03:12:37;9.90;99.90
16893;DHT22;8563;52.242;9.098;2023-04-01T03:15:10;9.80;99.90
16893;DHT22;8563;52.242;9.098;2023-04-01T03:17:44;9.80;99.90
16893;DHT22;8563;52.242;9.098;2023-04-01T03:20:17;9.80;99.90
16893;DHT22;8563;52.242;9.098;2023-04-01T03:22:50;9.80;99.90
16893;DHT22;8563;52.242;9.098;2023-04-01T03:25:23;9.80;99.90
16893;DHT22;8563;52.242;9.098;2023-04-01T03:27:56;9.80;99.90
16893;DHT22;8563;52.242;9.098;2023-04-01T03:30:30;9.80;99.90
16893;DHT22;8563;52.242;9.098;2023-04-01T03:33:02;9.80;99.90
16893;DHT22;8563;52.242;9.098;2023-04-01T03:35:36;9.80;99.90
16893;DHT22;8563;52.242;9.098;2023-04-01T03:38:08;9.90;99.90
16893;DHT22;8563;52.242;9.098;2023-04-01T03:40:43;9.90;99.90
16893;DHT22;8563;52.242;9.098;2023-04-01T03:43:16;9.90;99.90
16893;DHT22;8563;52.242;9.098;2023-04-01T03:45:50;9.80;99.90
16893;DHT22;8563;52.242;9.098;2023-04-01T03:48:23;9.80;99.90
16893;DHT22;8563;52.242;9.098;2023-04-01T03:50:56;9.80;99.90
16893;DHT22;8563;52.242;9.098;2023-04-01T03:53:28;9.80;99.90
16893;DHT22;8563;52.242;9.098;2023-04-01T03:56:06;9.80;99.90
16893;DHT22;8563;52.242;9.098;2023-04-01T03:58:40;9.80;99.90
16893;DHT22;8563;52.242;9.098;2023-04-01T04:01:15;9.80;99.90
16893;DHT22;8563;52.242;9.098;2023-04-01T04:03:48;9.80;99.90
16893;DHT22;8563;52.242;9.098;2023-04-01T04:06:20;9.80;99.90
16893;DHT22;8563;52.242;9.098;2023-04-01T04:08:53;9.80;99.90
16893;DHT22;8563;52.242;9.098;2023-04-01T04:11:27;9.70;99.90
16893;DHT22;8563;52.242;9.098;2023-04-01T04:13:59;9.80;99.90
16893;DHT22;8563;52.242;9.098;2023-04-01T04:16:31;9.80;99.90
16893;DHT22;8563;52.242;9.098;2023-04-01T04:19:06;9.80;99.90
16893;DHT22;8563;52.242;9.098;2023-04-01T04:21:39;9.80;99.90
16893;DHT22;8563;52.242;9.098;2023-04-01T04:24:12;9.80;99.90
16893;DHT22;8563;52.242;9.098;2023-04-01T04:27:04;9.80;99.90
16893;DHT22;8563;52.242;9.098;2023-04-01T04:29:41;9.80;99.90
16893;DHT22;8563;52.242;9.098;2023-04-01T04:32:14;9.80;99.90
16893;DHT22;8563;52.242;9.098;2023-04-01T04:34:46;9.80;99.90
16893;DHT22;8563;52.242;9.098;2023-04-01T04:37:18;9.80;99.90
16893;DHT22;8563;52.242;9.098;2023-04-01T04:39:50;9.80;99.90
16893;DHT22;8563;52.242;9.098;2023-04-01T04:42:24;9.80;99.90
16893;DHT22;8563;52.242;9.098;2023-04-01T04:45:01;9.70;99.90
16893;DHT22;8563;52.242;9.098;2023-04-01T04:47:34;9.80;99.90
16893;DHT22;8563;52.242;9.098;2023-04-01T04:50:08;9.80;99.90
16893;DHT22;8563;52.242;9.098;2023-04-01T04:52:44;9.80;99.90
16893;DHT22;8563;52.242;9.098;2023-04-01T04:55:16;9.80;99.90
16893;DHT22;8563;52.242;9.098;2023-04-01T04:57:54;9.80;99.90
16893;DHT22;8563;52.242;9.098;2023-04-01T05:00:26;9.80;99.90
16893;DHT22;8563;52.242;9.098;2023-04-01T05:03:04;9.80;99.90
16893;DHT22;8563;52.242;9.098;2023-04-01T05:05:37;9.80;99.90
16893;DHT22;8563;52.242;9.098;2023-04-01T05:08:11;9.80;99.90
16893;DHT22;8563;52.242;9.098;2023-04-01T05:10:43;9.80;99.90
16893;DHT22;8563;52.242;9.098;2023-04-01T05:13:17;9.80;99.90
16893;DHT22;8563;52.242;9.098;2023-04-01T05:15:51;9.80;99.90
16893;DHT22;8563;52.242;9.098;2023-04-01T05:18:24;9.80;99.90
16893;DHT22;8563;52.242;9.098;2023-04-01T05:20:56;9.80;99.90
16893;DHT22;8563;52.242;9.098;2023-04-01T05:23:32;9.80;99.90
16893;DHT22;8563;52.242;9.098;2023-04-01T05:26:05;9.80;99.90
16893;DHT22;8563;52.242;9.098;2023-04-01T05:28:39;9.80;99.90
16893;DHT22;8563;52.242;9.098;2023-04-01T05:31:11;9.90;99.90
16893;DHT22;8563;52.242;9.098;2023-04-01T05:33:47;9.90;99.90
16893;DHT22;8563;52.242;9.098;2023-04-01T05:36:19;9.90;99.90
16893;DHT22;8563;52.242;9.098;2023-04-01T05:38:55;9.90;99.90
16893;DHT22;8563;52.242;9.098;2023-04-01T05:41:29;9.90;99.90
16893;DHT22;8563;52.242;9.098;2023-04-01T05:44:04;9.90;99.90
16893;DHT22;8563;52.242;9.098;2023-04-01T05:46:45;10.00;99.90
16893;DHT22;8563;52.242;9.098;2023-04-01T05:49:29;10.00;99.90
16893;DHT22;8563;52.242;9.098;2023-04-01T05:52:01;10.10;99.90
16893;DHT22;8563;52.242;9.098;2023-04-01T05:54:34;10.10;99.90
16893;DHT22;8563;52.242;9.098;2023-04-01T05:57:09;10.10;99.90
16893;DHT22;8563;52.242;9.098;2023-04-01T05:59:43;10.20;99.90
16893;DHT22;8563;52.242;9.098;2023-04-01T06:02:17;10.20;99.90
16893;DHT22;8563;52.242;9.098;2023-04-01T06:05:03;10.20;99.90
16893;DHT22;8563;52.242;9.098;2023-04-01T06:07:42;10.20;99.90
16893;DHT22;8563;52.242;9.098;2023-04-01T06:12:58;10.30;99.90
16893;DHT22;8563;52.242;9.098;2023-04-01T06:15:38;10.30;99.90
16893;DHT22;8563;52.242;9.098;2023-04-01T06:18:41;10.30;99.90
16893;DHT22;8563;52.242;9.098;2023-04-01T06:21:42;10.30;99.90
16893;DHT22;8563;52.242;9.098;2023-04-01T06:24:31;10.40;99.90
16893;DHT22;8563;52.242;9.098;2023-04-01T06:27:19;10.40;99.90
16893;DHT22;8563;52.242;9.098;2023-04-01T06:30:07;10.40;99.90
16893;DHT22;8563;52.242;9.098;2023-04-01T06:33:02;10.50;99.90
16893;DHT22;8563;52.242;9.098;2023-04-01T06:36:00;10.60;99.90
16893;DHT22;8563;52.242;9.098;2023-04-01T06:44:59;10.60;99.90
16893;DHT22;8563;52.242;9.098;2023-04-01T06:48:08;10.60;99.90
16893;DHT22;8563;52.242;9.098;2023-04-01T06:51:09;10.70;99.90
16893;DHT22;8563;52.242;9.098;2023-04-01T06:54:07;10.60;99.90
16893;DHT22;8563;52.242;9.098;2023-04-01T06:57:03;10.60;99.90
16893;DHT22;8563;52.242;9.098;2023-04-01T06:59:39;10.60;99.90
16893;DHT22;8563;52.242;9.098;2023-04-01T07:02:24;10.50;99.90
16893;DHT22;8563;52.242;9.098;2023-04-01T07:05:01;10.50;99.90
16893;DHT22;8563;52.242;9.098;2023-04-01T07:07:37;10.40;99.90
16893;DHT22;8563;52.242;9.098;2023-04-01T07:10:17;10.50;99.90
16893;DHT22;8563;52.242;9.098;2023-04-01T07:13:34;10.50;99.90
16893;DHT22;8563;52.242;9.098;2023-04-01T07:16:19;10.50;99.90
16893;DHT22;8563;52.242;9.098;2023-04-01T07:18:56;10.60;99.90
16893;DHT22;8563;52.242;9.098;2023-04-01T07:21:41;10.60;99.90
16893;DHT22;8563;52.242;9.098;2023-04-01T07:24:26;10.70;99.90
16893;DHT22;8563;52.242;9.098;2023-04-01T07:27:12;10.80;99.90
16893;DHT22;8563;52.242;9.098;2023-04-01T07:29:46;10.80;99.90
16893;DHT22;8563;52.242;9.098;2023-04-01T07:32:31;10.90;99.90
16893;DHT22;8563;52.242;9.098;2023-04-01T07:35:20;11.00;99.90
16893;DHT22;8563;52.242;9.098;2023-04-01T07:38:11;11.20;99.90
16893;DHT22;8563;52.242;9.098;2023-04-01T07:40:50;11.30;99.90
16893;DHT22;8563;52.242;9.098;2023-04-01T07:43:38;11.40;99.90
16893;DHT22;8563;52.242;9.098;2023-04-01T07:46:57;11.60;99.90
16893;DHT22;8563;52.242;9.098;2023-04-01T07:49:42;11.80;99.90
16893;DHT22;8563;52.242;9.098;2023-04-01T07:52:26;11.90;99.90
16893;DHT22;8563;52.242;9.098;2023-04-01T07:55:14;11.90;99.90
16893;DHT22;8563;52.242;9.098;2023-04-01T07:57:52;12.00;99.90
16893;DHT22;8563;52.242;9.098;2023-04-01T08:00:33;12.10;99.90
16893;DHT22;8563;52.242;9.098;2023-04-01T08:03:38;12.30;99.90
16893;DHT22;8563;52.242;9.098;2023-04-01T08:06:20;12.40;99.90
16893;DHT22;8563;52.242;9.098;2023-04-01T08:09:02;12.40;99.90
16893;DHT22;8563;52.242;9.098;2023-04-01T08:12:04;12.50;99.90
16893;DHT22;8563;52.242;9.098;2023-04-01T08:15:06;12.50;99.90
16893;DHT22;8563;52.242;9.098;2023-04-01T08:18:00;12.50;99.90
16893;DHT22;8563;52.242;9.098;2023-04-01T08:20:39;12.40;99.90
16893;DHT22;8563;52.242;9.098;2023-04-01T08:23:16;12.40;99.90
16893;DHT22;8563;52.242;9.098;2023-04-01T08:25:53;12.40;99.90
16893;DHT22;8563;52.242;9.098;2023-04-01T08:28:34;12.50;99.90
16893;DHT22;8563;52.242;9.098;2023-04-01T08:31:13;12.60;99.90
16893;DHT22;8563;52.242;9.098;2023-04-01T08:33:49;12.70;99.90
16893;DHT22;8563;52.242;9.098;2023-04-01T08:36:29;12.70;99.90
16893;DHT22;8563;52.242;9.098;2023-04-01T08:39:19;12.70;99.90
16893;DHT22;8563;52.242;9.098;2023-04-01T08:48:14;12.90;99.90
16893;DHT22;8563;52.242;9.098;2023-04-01T08:51:14;12.90;99.90
16893;DHT22;8563;52.242;9.098;2023-04-01T08:54:03;13.00;99.90
16893;DHT22;8563;52.242;9.098;2023-04-01T08:56:42;12.90;99.90
16893;DHT22;8563;52.242;9.098;2023-04-01T08:59:45;13.00;99.90
16893;DHT22;8563;52.242;9.098;2023-04-01T09:03:18;13.00;99.90
16893;DHT22;8563;52.242;9.098;2023-04-01T09:09:13;12.70;99.90
16893;DHT22;8563;52.242;9.098;2023-04-01T09:12:07;12.50;99.90
16893;DHT22;8563;52.242;9.098;2023-04-01T09:18:09;12.20;99.90
16893;DHT22;8563;52.242;9.098;2023-04-01T09:21:04;12.20;99.90
16893;DHT22;8563;52.242;9.098;2023-04-01T09:27:04;12.50;99.90
16893;DHT22;8563;52.242;9.098;2023-04-01T09:35:47;12.80;99.90
16893;DHT22;8563;52.242;9.098;2023-04-01T09:38:28;12.80;99.90
16893;DHT22;8563;52.242;9.098;2023-04-01T09:41:10;13.00;99.90
16893;DHT22;8563;52.242;9.098;2023-04-01T09:44:27;13.00;99.90
16893;DHT22;8563;52.242;9.098;2023-04-01T09:47:30;13.10;99.90
16893;DHT22;8563;52.242;9.098;2023-04-01T09:50:26;13.10;99.90
16893;DHT22;8563;52.242;9.098;2023-04-01T09:53:11;13.20;99.90
16893;DHT22;8563;52.242;9.098;2023-04-01T10:06:22;13.70;99.90
16893;DHT22;8563;52.242;9.098;2023-04-01T10:15:31;13.80;99.90
16893;DHT22;8563;52.242;9.098;2023-04-01T10:18:41;13.60;99.90
16893;DHT22;8563;52.242;9.098;2023-04-01T10:21:31;13.30;99.90
16893;DHT22;8563;52.242;9.098;2023-04-01T10:24:19;13.20;99.90
16893;DHT22;8563;52.242;9.098;2023-04-01T10:27:26;13.40;99.90
16893;DHT22;8563;52.242;9.098;2023-04-01T10:33:54;13.50;99.90
16893;DHT22;8563;52.242;9.098;2023-04-01T10:36:53;13.40;99.90
16893;DHT22;8563;52.242;9.098;2023-04-01T10:40:23;13.40;99.90
16893;DHT22;8563;52.242;9.098;2023-04-01T10:50:24;14.10;99.90
16893;DHT22;8563;52.242;9.098;2023-04-01T10:53:23;14.00;99.90
16893;DHT22;8563;52.242;9.098;2023-04-01T10:56:45;14.00;99.90
16893;DHT22;8563;52.242;9.098;2023-04-01T11:00:08;14.00;99.90
16893;DHT22;8563;52.242;9.098;2023-04-01T11:04:00;14.00;99.90
16893;DHT22;8563;52.242;9.098;2023-04-01T11:13:20;13.60;99.90
16893;DHT22;8563;52.242;9.098;2023-04-01T11:22:48;14.00;99.90
16893;DHT22;8563;52.242;9.098;2023-04-01T11:25:54;14.20;99.90
16893;DHT22;8563;52.242;9.098;2023-04-01T11:32:20;14.80;99.90
16893;DHT22;8563;52.242;9.098;2023-04-01T11:35:09;15.10;99.90
16893;DHT22;8563;52.242;9.098;2023-04-01T11:37:51;15.00;99.90
16893;DHT22;8563;52.242;9.098;2023-04-01T11:41:01;14.80;99.90
16893;DHT22;8563;52.242;9.098;2023-04-01T11:44:12;14.60;99.90
16893;DHT22;8563;52.242;9.098;2023-04-01T11:47:09;14.70;99.90
16893;DHT22;8563;52.242;9.098;2023-04-01T11:49:53;14.80;99.90
16893;DHT22;8563;52.242;9.098;2023-04-01T11:53:17;14.80;99.90
16893;DHT22;8563;52.242;9.098;2023-04-01T11:56:09;14.70;99.90
16893;DHT22;8563;52.242;9.098;2023-04-01T12:01:48;14.90;99.90
16893;DHT22;8563;52.242;9.098;2023-04-01T12:04:51;15.00;99.90
16893;DHT22;8563;52.242;9.098;2023-04-01T12:07:53;14.70;99.90
16893;DHT22;8563;52.242;9.098;2023-04-01T12:10:34;14.50;99.90
16893;DHT22;8563;52.242;9.098;2023-04-01T12:13:20;14.50;99.90
16893;DHT22;8563;52.242;9.098;2023-04-01T12:19:03;14.50;99.90
16893;DHT22;8563;52.242;9.098;2023-04-01T12:21:38;14.30;99.90
16893;DHT22;8563;52.242;9.098;2023-04-01T12:24:32;14.20;99.90
16893;DHT22;8563;52.242;9.098;2023-04-01T12:27:16;13.90;99.90
16893;DHT22;8563;52.242;9.098;2023-04-01T12:33:19;13.60;99.90
16893;DHT22;8563;52.242;9.098;2023-04-01T12:36:03;13.60;99.90
16893;DHT22;8563;52.242;9.098;2023-04-01T12:38:44;13.60;99.90
16893;DHT22;8563;52.242;9.098;2023-04-01T12:41:24;13.60;99.90
16893;DHT22;8563;52.242;9.098;2023-04-01T12:44:19;13.50;99.90
16893;DHT22;8563;52.242;9.098;2023-04-01T12:47:08;13.30;99.90
16893;DHT22;8563;52.242;9.098;2023-04-01T12:50:10;13.20;99.90
16893;DHT22;8563;52.242;9.098;2023-04-01T12:53:00;13.30;99.90
16893;DHT22;8563;52.242;9.098;2023-04-01T12:55:44;13.50;99.90
16893;DHT22;8563;52.242;9.098;2023-04-01T13:01:44;13.50;99.90
16893;DHT22;8563;52.242;9.098;2023-04-01T13:07:59;13.50;99.90
16893;DHT22;8563;52.242;9.098;2023-04-01T13:10:49;13.60;99.90
16893;DHT22;8563;52.242;9.098;2023-04-01T13:13:43;13.60;99.90
16893;DHT22;8563;52.242;9.098;2023-04-01T13:16:19;13.70;99.90
16893;DHT22;8563;52.242;9.098;2023-04-01T13:19:02;13.60;99.90
16893;DHT22;8563;52.242;9.098;2023-04-01T13:21:47;13.60;99.90
16893;DHT22;8563;52.242;9.098;2023-04-01T13:24:36;13.50;99.90
16893;DHT22;8563;52.242;9.098;2023-04-01T13:27:16;13.50;99.90
16893;DHT22;8563;52.242;9.098;2023-04-01T13:30:00;13.50;99.90
16893;DHT22;8563;52.242;9.098;2023-04-01T13:32:39;13.50;99.90
16893;DHT22;8563;52.242;9.098;2023-04-01T13:35:23;13.50;99.90
16893;DHT22;8563;52.242;9.098;2023-04-01T13:38:05;13.50;99.90
16893;DHT22;8563;52.242;9.098;2023-04-01T13:40:48;13.50;99.90
16893;DHT22;8563;52.242;9.098;2023-04-01T13:43:23;13.70;99.90
16893;DHT22;8563;52.242;9.098;2023-04-01T13:46:20;13.70;99.90
16893;DHT22;8563;52.242;9.098;2023-04-01T13:49:19;13.70;99.90
16893;DHT22;8563;52.242;9.098;2023-04-01T13:52:08;13.70;99.90
16893;DHT22;8563;52.242;9.098;2023-04-01T13:55:06;13.70;99.90
16893;DHT22;8563;52.242;9.098;2023-04-01T13:58:15;13.70;99.90
16893;DHT22;8563;52.242;9.098;2023-04-01T14:01:04;13.60;99.90
16893;DHT22;8563;52.242;9.098;2023-04-01T14:04:02;13.70;99.90
16893;DHT22;8563;52.242;9.098;2023-04-01T14:06:44;13.70;99.90
16893;DHT22;8563;52.242;9.098;2023-04-01T14:09:43;13.80;99.90
16893;DHT22;8563;52.242;9.098;2023-04-01T14:12:28;13.80;99.90
16893;DHT22;8563;52.242;9.098;2023-04-01T14:15:25;13.90;99.90
16893;DHT22;8563;52.242;9.098;2023-04-01T14:18:19;13.90;99.90
16893;DHT22;8563;52.242;9.098;2023-04-01T14:21:05;13.90;99.90
16893;DHT22;8563;52.242;9.098;2023-04-01T14:23:59;13.80;99.90
16893;DHT22;8563;52.242;9.098;2023-04-01T14:29:48;13.70;99.90
16893;DHT22;8563;52.242;9.098;2023-04-01T14:32:33;13.70;99.90
16893;DHT22;8563;52.242;9.098;2023-04-01T14:35:21;13.70;99.90
16893;DHT22;8563;52.242;9.098;2023-04-01T14:41:17;13.60;99.90
16893;DHT22;8563;52.242;9.098;2023-04-01T14:47:15;13.80;99.90
16893;DHT22;8563;52.242;9.098;2023-04-01T14:49:53;13.70;99.90
16893;DHT22;8563;52.242;9.098;2023-04-01T14:52:36;13.60;99.90
16893;DHT22;8563;52.242;9.098;2023-04-01T14:55:28;13.40;99.90
16893;DHT22;8563;52.242;9.098;2023-04-01T14:58:10;13.30;99.90
16893;DHT22;8563;52.242;9.098;2023-04-01T15:00:58;13.40;99.90
16893;DHT22;8563;52.242;9.098;2023-04-01T15:03:36;13.20;99.90
16893;DHT22;8563;52.242;9.098;2023-04-01T15:06:39;13.20;99.90
16893;DHT22;8563;52.242;9.098;2023-04-01T15:09:22;12.90;99.90
16893;DHT22;8563;52.242;9.098;2023-04-01T15:12:06;12.70;99.90
16893;DHT22;8563;52.242;9.098;2023-04-01T15:14:51;12.80;99.90
16893;DHT22;8563;52.242;9.098;2023-04-01T15:17:39;12.80;99.90
16893;DHT22;8563;52.242;9.098;2023-04-01T15:20:38;12.90;99.90
16893;DHT22;8563;52.242;9.098;2023-04-01T15:23:28;12.80;99.90
16893;DHT22;8563;52.242;9.098;2023-04-01T15:26:17;12.70;99.90
16893;DHT22;8563;52.242;9.098;2023-04-01T15:29:01;12.60;99.90
16893;DHT22;8563;52.242;9.098;2023-04-01T15:31:43;12.50;99.90
16893;DHT22;8563;52.242;9.098;2023-04-01T15:34:27;12.20;99.90
16893;DHT22;8563;52.242;9.098;2023-04-01T15:37:08;12.10;99.90
16893;DHT22;8563;52.242;9.098;2023-04-01T15:39:51;12.00;99.90
16893;DHT22;8563;52.242;9.098;2023-04-01T15:42:41;11.60;99.90
16893;DHT22;8563;52.242;9.098;2023-04-01T15:45:24;10.90;99.90
16893;DHT22;8563;52.242;9.098;2023-04-01T15:48:17;10.60;99.90
16893;DHT22;8563;52.242;9.098;2023-04-01T15:51:07;10.30;99.90
16893;DHT22;8563;52.242;9.098;2023-04-01T15:54:12;10.20;99.90
16893;DHT22;8563;52.242;9.098;2023-04-01T15:57:02;10.10;99.90
16893;DHT22;8563;52.242;9.098;2023-04-01T15:59:53;10.00;99.90
16893;DHT22;8563;52.242;9.098;2023-04-01T16:02:31;9.90;99.90
16893;DHT22;8563;52.242;9.098;2023-04-01T16:05:09;9.80;99.90
16893;DHT22;8563;52.242;9.098;2023-04-01T16:07:52;9.60;99.90
16893;DHT22;8563;52.242;9.098;2023-04-01T16:10:44;9.60;99.90
16893;DHT22;8563;52.242;9.098;2023-04-01T16:13:30;9.50;99.90
16893;DHT22;8563;52.242;9.098;2023-04-01T16:16:14;9.50;99.90
16893;DHT22;8563;52.242;9.098;2023-04-01T16:19:13;9.50;99.90
16893;DHT22;8563;52.242;9.098;2023-04-01T16:21:51;9.50;99.90
16893;DHT22;8563;52.242;9.098;2023-04-01T16:24:33;9.40;99.90
16893;DHT22;8563;52.242;9.098;2023-04-01T16:27:10;9.30;99.90
16893;DHT22;8563;52.242;9.098;2023-04-01T16:29:48;9.20;99.90
16893;DHT22;8563;52.242;9.098;2023-04-01T16:32:29;9.20;99.90
16893;DHT22;8563;52.242;9.098;2023-04-01T16:35:33;9.20;99.90
16893;DHT22;8563;52.242;9.098;2023-04-01T16:38:13;9.10;99.90
16893;DHT22;8563;52.242;9.098;2023-04-01T16:40:58;9.10;99.90
16893;DHT22;8563;52.242;9.098;2023-04-01T16:43:39;9.00;99.90
16893;DHT22;8563;52.242;9.098;2023-04-01T16:49:23;9.00;99.90
16893;DHT22;8563;52.242;9.098;2023-04-01T16:52:11;9.00;99.90
16893;DHT22;8563;52.242;9.098;2023-04-01T16:54:50;8.90;99.90
16893;DHT22;8563;52.242;9.098;2023-04-01T16:57:30;8.90;99.90
16893;DHT22;8563;52.242;9.098;2023-04-01T17:00:16;8.80;99.90
16893;DHT22;8563;52.242;9.098;2023-04-01T17:02:58;8.70;99.90
16893;DHT22;8563;52.242;9.098;2023-04-01T17:05:40;8.70;99.90
16893;DHT22;8563;52.242;9.098;2023-04-01T17:08:26;8.70;99.90
16893;DHT22;8563;52.242;9.098;2023-04-01T17:11:08;8.70;99.90
16893;DHT22;8563;52.242;9.098;2023-04-01T17:13:47;8.60;99.90
16893;DHT22;8563;52.242;9.098;2023-04-01T17:19:45;8.50;99.90
16893;DHT22;8563;52.242;9.098;2023-04-01T17:22:28;8.40;99.90
16893;DHT22;8563;52.242;9.098;2023-04-01T17:25:29;8.40;99.90
16893;DHT22;8563;52.242;9.098;2023-04-01T17:28:11;8.40;99.90
16893;DHT22;8563;52.242;9.098;2023-04-01T17:30:50;8.30;99.90
16893;DHT22;8563;52.242;9.098;2023-04-01T17:33:35;8.20;99.90
16893;DHT22;8563;52.242;9.098;2023-04-01T17:36:29;8.20;99.90
16893;DHT22;8563;52.242;9.098;2023-04-01T17:39:16;8.10;99.90
16893;DHT22;8563;52.242;9.098;2023-04-01T17:41:54;8.00;99.90
16893;DHT22;8563;52.242;9.098;2023-04-01T17:44:38;8.00;99.90
16893;DHT22;8563;52.242;9.098;2023-04-01T17:50:24;7.80;99.90
16893;DHT22;8563;52.242;9.098;2023-04-01T17:53:17;7.80;99.90
16893;DHT22;8563;52.242;9.098;2023-04-01T17:56:06;7.80;99.90
16893;DHT22;8563;52.242;9.098;2023-04-01T17:58:45;7.80;99.90
16893;DHT22;8563;52.242;9.098;2023-04-01T18:01:36;7.70;99.90
16893;DHT22;8563;52.242;9.098;2023-04-01T18:04:18;7.70;99.90
16893;DHT22;8563;52.242;9.098;2023-04-01T18:10:21;7.50;99.90
16893;DHT22;8563;52.242;9.098;2023-04-01T18:13:25;7.50;99.90
16893;DHT22;8563;52.242;9.098;2023-04-01T18:16:11;7.50;99.90
16893;DHT22;8563;52.242;9.098;2023-04-01T18:18:53;7.40;99.90
16893;DHT22;8563;52.242;9.098;2023-04-01T18:21:40;7.30;99.90
16893;DHT22;8563;52.242;9.098;2023-04-01T18:24:21;7.20;99.90
16893;DHT22;8563;52.242;9.098;2023-04-01T18:27:02;7.20;99.90
16893;DHT22;8563;52.242;9.098;2023-04-01T18:29:40;7.30;99.90
16893;DHT22;8563;52.242;9.098;2023-04-01T18:32:25;7.20;99.90
16893;DHT22;8563;52.242;9.098;2023-04-01T18:35:02;7.20;99.90
16893;DHT22;8563;52.242;9.098;2023-04-01T18:37:48;7.10;99.90
16893;DHT22;8563;52.242;9.098;2023-04-01T18:40:29;7.00;99.90
16893;DHT22;8563;52.242;9.098;2023-04-01T18:43:10;7.00;99.90
16893;DHT22;8563;52.242;9.098;2023-04-01T18:45:46;7.00;99.90
16893;DHT22;8563;52.242;9.098;2023-04-01T18:48:41;7.00;99.90
16893;DHT22;8563;52.242;9.098;2023-04-01T18:51:17;7.00;99.90
16893;DHT22;8563;52.242;9.098;2023-04-01T18:53:56;7.00;99.90
16893;DHT22;8563;52.242;9.098;2023-04-01T18:56:33;6.90;99.90
16893;DHT22;8563;52.242;9.098;2023-04-01T18:59:08;6.90;99.90
16893;DHT22;8563;52.242;9.098;2023-04-01T19:01:49;6.90;99.90
16893;DHT22;8563;52.242;9.098;2023-04-01T19:04:30;6.90;99.90
16893;DHT22;8563;52.242;9.098;2023-04-01T19:07:39;6.90;99.90
16893;DHT22;8563;52.242;9.098;2023-04-01T19:10:23;6.80;99.90
16893;DHT22;8563;52.242;9.098;2023-04-01T19:13:10;6.80;99.90
16893;DHT22;8563;52.242;9.098;2023-04-01T19:15:50;6.80;99.90
16893;DHT22;8563;52.242;9.098;2023-04-01T19:21:31;6.80;99.90
16893;DHT22;8563;52.242;9.098;2023-04-01T19:24:37;6.60;99.90
16893;DHT22;8563;52.242;9.098;2023-04-01T19:27:22;6.70;99.90
16893;DHT22;8563;52.242;9.098;2023-04-01T19:30:12;6.70;99.90
16893;DHT22;8563;52.242;9.098;2023-04-01T19:32:53;6.60;99.90
16893;DHT22;8563;52.242;9.098;2023-04-01T19:35:36;6.60;99.90
16893;DHT22;8563;52.242;9.098;2023-04-01T19:38:15;6.60;99.90